sensor_id;sensor_type;location;lat;lon;timestamp;temperature;humidity
23124;DHT22;11731;48.592;8.858;2024-03-08T00:01:15;5.90;99.90
23124;DHT22;11731;48.592;8.858;2024-03-08T00:03:42;6.00;99.90
23124;DHT22;11731;48.592;8.858;2024-03-08T00:06:10;6.00;99.90
23124;DHT22;11731;48.592;8.858;2024-03-08T00:08:37;5.70;99.90
23124;DHT22;11731;48.592;8.858;2024-03-08T00:11:04;5.50;99.90
23124;DHT22;11731;48.592;8.858;2024-03-08T00:13:31;5.60;99.90
23124;DHT22;11731;48.592;8.858;2024-03-08T00:15:58;5.90;99.90
23124;DHT22;11731;48.592;8.858;2024-03-08T00:18:25;5.80;99.90
23124;DHT22;11731;48.592;8.858;2024-03-08T00:20:52;5.80;99.90
23124;DHT22;11731;48.592;8.858;2024-03-08T00:23:20;6.00;99.90
23124;DHT22;11731;48.592;8.858;2024-03-08T00:25:47;5.90;99.90
23124;DHT22;11731;48.592;8.858;2024-03-08T00:28:16;5.90;99.90
23124;DHT22;11731;48.592;8.858;2024-03-08T00:30:47;5.80;99.90
23124;DHT22;11731;48.592;8.858;2024-03-08T00:33:14;5.90;99.90
23124;DHT22;11731;48.592;8.858;2024-03-08T00:35:41;6.10;99.90
23124;DHT22;11731;48.592;8.858;2024-03-08T00:38:08;5.70;99.90
23124;DHT22;11731;48.592;8.858;2024-03-08T00:40:42;5.10;99.90
23124;DHT22;11731;48.592;8.858;2024-03-08T00:43:09;4.90;99.90
23124;DHT22;11731;48.592;8.858;2024-03-08T00:45:54;5.00;99.90
23124;DHT22;11731;48.592;8.858;2024-03-08T00:48:24;5.30;99.90
23124;DHT22;11731;48.592;8.858;2024-03-08T00:51:18;5.20;99.90
23124;DHT22;11731;48.592;8.858;2024-03-08T00:53:47;5.10;99.90
23124;DHT22;11731;48.592;8.858;2024-03-08T00:56:15;4.80;99.90
23124;DHT22;11731;48.592;8.858;2024-03-08T00:58:42;4.70;99.90
23124;DHT22;11731;48.592;8.858;2024-03-08T01:01:18;4.70;99.90
23124;DHT22;11731;48.592;8.858;2024-03-08T01:07:23;4.90;99.90
23124;DHT22;11731;48.592;8.858;2024-03-08T01:09:56;4.90;99.90
23124;DHT22;11731;48.592;8.858;2024-03-08T01:12:24;5.00;99.90
23124;DHT22;11731;48.592;8.858;2024-03-08T01:14:51;4.90;99.90
23124;DHT22;11731;48.592;8.858;2024-03-08T01:17:20;4.90;99.90
23124;DHT22;11731;48.592;8.858;2024-03-08T01:19:48;4.80;99.90
23124;DHT22;11731;48.592;8.858;2024-03-08T01:22:15;4.80;99.90
23124;DHT22;11731;48.592;8.858;2024-03-08T01:24:47;4.60;99.90
23124;DHT22;11731;48.592;8.858;2024-03-08T01:27:14;4.50;99.90
23124;DHT22;11731;48.592;8.858;2024-03-08T01:29:42;4.30;99.90
23124;DHT22;11731;48.592;8.858;2024-03-08T01:32:18;4.30;99.90
23124;DHT22;11731;48.592;8.858;2024-03-08T01:35:21;4.20;99.90
23124;DHT22;11731;48.592;8.858;2024-03-08T01:37:48;3.80;99.90
23124;DHT22;11731;48.592;8.858;2024-03-08T01:40:16;3.40;99.90
23124;DHT22;11731;48.592;8.858;2024-03-08T01:42:43;3.60;99.90
23124;DHT22;11731;48.592;8.858;2024-03-08T01:45:11;3.80;99.90
23124;DHT22;11731;48.592;8.858;2024-03-08T01:47:38;4.10;99.90
23124;DHT22;11731;48.592;8.858;2024-03-08T01:50:10;4.20;99.90
23124;DHT22;11731;48.592;8.858;2024-03-08T01:55:19;3.80;99.90
23124;DHT22;11731;48.592;8.858;2024-03-08T01:57:47;3.50;99.90
23124;DHT22;11731;48.592;8.858;2024-03-08T02:00:26;3.50;99.90
23124;DHT22;11731;48.592;8.858;2024-03-08T02:02:55;3.60;99.90
23124;DHT22;11731;48.592;8.858;2024-03-08T02:05:23;3.50;99.90
23124;DHT22;11731;48.592;8.858;2024-03-08T02:07:50;3.40;99.90
23124;DHT22;11731;48.592;8.858;2024-03-08T02:10:17;3.40;99.90
23124;DHT22;11731;48.592;8.858;2024-03-08T02:13:23;3.30;99.90
23124;DHT22;11731;48.592;8.858;2024-03-08T02:15:53;3.20;99.90
23124;DHT22;11731;48.592;8.858;2024-03-08T02:18:20;3.30;99.90
23124;DHT22;11731;48.592;8.858;2024-03-08T02:20:49;2.90;99.90
23124;DHT22;11731;48.592;8.858;2024-03-08T02:23:16;2.70;99.90
23124;DHT22;11731;48.592;8.858;2024-03-08T02:25:43;2.60;99.90
23124;DHT22;11731;48.592;8.858;2024-03-08T02:28:13;2.60;99.90
23124;DHT22;11731;48.592;8.858;2024-03-08T02:30:41;3.00;99.90
23124;DHT22;11731;48.592;8.858;2024-03-08T02:33:08;2.80;99.90
23124;DHT22;11731;48.592;8.858;2024-03-08T02:36:08;2.70;99.90
23124;DHT22;11731;48.592;8.858;2024-03-08T02:38:33;2.60;99.90
23124;DHT22;11731;48.592;8.858;2024-03-08T02:41:00;2.70;99.90
23124;DHT22;11731;48.592;8.858;2024-03-08T02:43:29;2.80;99.90
23124;DHT22;11731;48.592;8.858;2024-03-08T02:45:56;2.70;99.90
23124;DHT22;11731;48.592;8.858;2024-03-08T02:48:23;2.50;99.90
23124;DHT22;11731;48.592;8.858;2024-03-08T02:50:50;2.50;99.90
23124;DHT22;11731;48.592;8.858;2024-03-08T02:53:19;2.50;99.90
23124;DHT22;11731;48.592;8.858;2024-03-08T02:55:51;2.60;99.90
23124;DHT22;11731;48.592;8.858;2024-03-08T02:58:18;2.70;99.90
23124;DHT22;11731;48.592;8.858;2024-03-08T03:00:45;2.80;99.90
23124;DHT22;11731;48.592;8.858;2024-03-08T03:03:37;2.90;99.90
23124;DHT22;11731;48.592;8.858;2024-03-08T03:06:25;2.80;99.90
23124;DHT22;11731;48.592;8.858;2024-03-08T03:12:05;3.00;99.90
23124;DHT22;11731;48.592;8.858;2024-03-08T03:14:35;3.20;99.90
23124;DHT22;11731;48.592;8.858;2024-03-08T03:17:09;2.80;99.90
23124;DHT22;11731;48.592;8.858;2024-03-08T03:19:36;2.60;99.90
23124;DHT22;11731;48.592;8.858;2024-03-08T03:25:17;3.00;99.90
23124;DHT22;11731;48.592;8.858;2024-03-08T03:27:50;2.90;99.90
23124;DHT22;11731;48.592;8.858;2024-03-08T03:30:41;3.00;99.90
23124;DHT22;11731;48.592;8.858;2024-03-08T03:33:18;3.30;99.90
23124;DHT22;11731;48.592;8.858;2024-03-08T03:35:46;3.30;99.90
23124;DHT22;11731;48.592;8.858;2024-03-08T03:38:13;3.30;99.90
23124;DHT22;11731;48.592;8.858;2024-03-08T03:40:42;3.60;99.90
23124;DHT22;11731;48.592;8.858;2024-03-08T03:43:12;3.50;99.90
23124;DHT22;11731;48.592;8.858;2024-03-08T03:45:41;3.60;99.90
23124;DHT22;11731;48.592;8.858;2024-03-08T03:48:08;3.40;99.90
23124;DHT22;11731;48.592;8.858;2024-03-08T03:50:44;3.20;99.90
23124;DHT22;11731;48.592;8.858;2024-03-08T03:53:11;3.00;99.90
23124;DHT22;11731;48.592;8.858;2024-03-08T03:55:57;2.90;99.90
23124;DHT22;11731;48.592;8.858;2024-03-08T03:58:28;3.00;99.90
23124;DHT22;11731;48.592;8.858;2024-03-08T04:00:55;3.00;99.90
23124;DHT22;11731;48.592;8.858;2024-03-08T04:03:22;2.80;99.90
23124;DHT22;11731;48.592;8.858;2024-03-08T04:05:49;2.80;99.90
23124;DHT22;11731;48.592;8.858;2024-03-08T04:08:36;3.10;99.90
23124;DHT22;11731;48.592;8.858;2024-03-08T04:11:03;3.10;99.90
23124;DHT22;11731;48.592;8.858;2024-03-08T04:13:34;3.10;99.90
23124;DHT22;11731;48.592;8.858;2024-03-08T04:16:02;2.90;99.90
23124;DHT22;11731;48.592;8.858;2024-03-08T04:18:33;2.90;99.90
23124;DHT22;11731;48.592;8.858;2024-03-08T04:27:13;3.20;99.90
23124;DHT22;11731;48.592;8.858;2024-03-08T04:27:57;3.00;99.90
23124;DHT22;11731;48.592;8.858;2024-03-08T04:30:25;3.10;99.90
23124;DHT22;11731;48.592;8.858;2024-03-08T04:32:59;3.20;99.90
23124;DHT22;11731;48.592;8.858;2024-03-08T04:35:29;3.40;99.90
23124;DHT22;11731;48.592;8.858;2024-03-08T04:37:56;3.40;99.90
23124;DHT22;11731;48.592;8.858;2024-03-08T04:40:27;3.30;99.90
23124;DHT22;11731;48.592;8.858;2024-03-08T04:42:54;3.30;99.90
23124;DHT22;11731;48.592;8.858;2024-03-08T04:45:21;3.20;99.90
23124;DHT22;11731;48.592;8.858;2024-03-08T04:47:51;3.30;99.90
23124;DHT22;11731;48.592;8.858;2024-03-08T04:50:18;3.00;99.90
23124;DHT22;11731;48.592;8.858;2024-03-08T04:55:45;2.80;99.90
23124;DHT22;11731;48.592;8.858;2024-03-08T04:58:14;2.90;99.90
23124;DHT22;11731;48.592;8.858;2024-03-08T05:00:50;2.60;99.90
23124;DHT22;11731;48.592;8.858;2024-03-08T05:06:33;2.40;99.90
23124;DHT22;11731;48.592;8.858;2024-03-08T05:09:01;2.50;99.90
23124;DHT22;11731;48.592;8.858;2024-03-08T05:11:38;2.50;99.90
23124;DHT22;11731;48.592;8.858;2024-03-08T05:14:06;2.40;99.90
23124;DHT22;11731;48.592;8.858;2024-03-08T05:16:33;2.70;99.90
23124;DHT22;11731;48.592;8.858;2024-03-08T05:19:14;2.80;99.90
23124;DHT22;11731;48.592;8.858;2024-03-08T05:21:47;3.00;99.90
23124;DHT22;11731;48.592;8.858;2024-03-08T05:24:32;3.30;99.90
23124;DHT22;11731;48.592;8.858;2024-03-08T05:30:22;3.70;99.90
23124;DHT22;11731;48.592;8.858;2024-03-08T05:33:00;3.80;99.90
23124;DHT22;11731;48.592;8.858;2024-03-08T05:35:40;3.80;99.90
23124;DHT22;11731;48.592;8.858;2024-03-08T05:41:01;4.00;99.90
23124;DHT22;11731;48.592;8.858;2024-03-08T05:44:07;4.10;99.90
23124;DHT22;11731;48.592;8.858;2024-03-08T05:46:34;4.30;99.90
23124;DHT22;11731;48.592;8.858;2024-03-08T05:49:01;4.40;99.90
23124;DHT22;11731;48.592;8.858;2024-03-08T05:51:30;4.60;99.90
23124;DHT22;11731;48.592;8.858;2024-03-08T05:54:47;4.80;99.90
23124;DHT22;11731;48.592;8.858;2024-03-08T05:57:15;4.70;99.90
23124;DHT22;11731;48.592;8.858;2024-03-08T05:59:42;4.80;99.90
23124;DHT22;11731;48.592;8.858;2024-03-08T06:02:09;4.90;99.90
23124;DHT22;11731;48.592;8.858;2024-03-08T06:04:38;4.60;99.90
23124;DHT22;11731;48.592;8.858;2024-03-08T06:07:26;4.30;99.90
23124;DHT22;11731;48.592;8.858;2024-03-08T06:09:55;4.40;99.90
23124;DHT22;11731;48.592;8.858;2024-03-08T06:12:23;4.60;99.90
23124;DHT22;11731;48.592;8.858;2024-03-08T06:14:54;4.80;99.90
23124;DHT22;11731;48.592;8.858;2024-03-08T06:17:21;4.70;99.90
23124;DHT22;11731;48.592;8.858;2024-03-08T06:19:51;4.70;99.90
23124;DHT22;11731;48.592;8.858;2024-03-08T06:22:18;4.80;99.90
23124;DHT22;11731;48.592;8.858;2024-03-08T06:24:45;4.70;99.90
23124;DHT22;11731;48.592;8.858;2024-03-08T06:27:12;4.60;99.90
23124;DHT22;11731;48.592;8.858;2024-03-08T06:29:41;4.50;99.90
23124;DHT22;11731;48.592;8.858;2024-03-08T06:32:07;4.50;99.90
23124;DHT22;11731;48.592;8.858;2024-03-08T06:34:34;4.90;99.90
23124;DHT22;11731;48.592;8.858;2024-03-08T06:37:01;4.90;99.90
23124;DHT22;11731;48.592;8.858;2024-03-08T06:39:27;5.10;99.90
23124;DHT22;11731;48.592;8.858;2024-03-08T06:41:57;4.80;99.90
23124;DHT22;11731;48.592;8.858;2024-03-08T06:44:24;4.60;99.90
23124;DHT22;11731;48.592;8.858;2024-03-08T06:46:56;4.70;99.90
23124;DHT22;11731;48.592;8.858;2024-03-08T06:49:53;4.80;99.90
23124;DHT22;11731;48.592;8.858;2024-03-08T06:52:20;4.80;99.90
23124;DHT22;11731;48.592;8.858;2024-03-08T06:55:18;5.40;99.90
23124;DHT22;11731;48.592;8.858;2024-03-08T06:57:45;5.50;99.90
23124;DHT22;11731;48.592;8.858;2024-03-08T07:00:12;5.50;99.90
23124;DHT22;11731;48.592;8.858;2024-03-08T07:02:45;5.80;99.90
23124;DHT22;11731;48.592;8.858;2024-03-08T07:05:19;5.60;99.90
23124;DHT22;11731;48.592;8.858;2024-03-08T07:07:46;6.00;99.90
23124;DHT22;11731;48.592;8.858;2024-03-08T07:10:14;6.10;99.90
23124;DHT22;11731;48.592;8.858;2024-03-08T07:12:41;6.00;99.90
23124;DHT22;11731;48.592;8.858;2024-03-08T07:15:08;5.80;99.90
23124;DHT22;11731;48.592;8.858;2024-03-08T07:17:38;6.20;99.90
23124;DHT22;11731;48.592;8.858;2024-03-08T07:20:08;6.30;99.90
23124;DHT22;11731;48.592;8.858;2024-03-08T07:22:38;6.60;99.90
23124;DHT22;11731;48.592;8.858;2024-03-08T07:25:05;6.60;99.90
23124;DHT22;11731;48.592;8.858;2024-03-08T07:27:46;6.30;99.90
23124;DHT22;11731;48.592;8.858;2024-03-08T07:30:13;6.10;99.90
23124;DHT22;11731;48.592;8.858;2024-03-08T07:33:00;6.20;99.90
23124;DHT22;11731;48.592;8.858;2024-03-08T07:35:29;6.10;99.90
23124;DHT22;11731;48.592;8.858;2024-03-08T07:38:01;6.30;99.90
23124;DHT22;11731;48.592;8.858;2024-03-08T07:40:30;6.30;99.90
23124;DHT22;11731;48.592;8.858;2024-03-08T07:42:57;5.90;99.90
23124;DHT22;11731;48.592;8.858;2024-03-08T07:45:24;6.20;99.90
23124;DHT22;11731;48.592;8.858;2024-03-08T07:47:51;6.40;99.90
23124;DHT22;11731;48.592;8.858;2024-03-08T07:50:41;6.60;99.90
23124;DHT22;11731;48.592;8.858;2024-03-08T07:56:04;7.00;99.90
23124;DHT22;11731;48.592;8.858;2024-03-08T07:58:31;7.20;99.90
23124;DHT22;11731;48.592;8.858;2024-03-08T08:00:58;7.30;99.90
23124;DHT22;11731;48.592;8.858;2024-03-08T08:03:25;7.30;99.90
23124;DHT22;11731;48.592;8.858;2024-03-08T08:05:54;7.60;99.90
23124;DHT22;11731;48.592;8.858;2024-03-08T08:08:21;7.70;99.90
23124;DHT22;11731;48.592;8.858;2024-03-08T08:10:52;7.80;99.90
23124;DHT22;11731;48.592;8.858;2024-03-08T08:13:43;8.00;99.90
23124;DHT22;11731;48.592;8.858;2024-03-08T08:16:10;7.50;99.90
23124;DHT22;11731;48.592;8.858;2024-03-08T08:18:38;7.10;99.90
23124;DHT22;11731;48.592;8.858;2024-03-08T08:21:07;6.70;99.90
23124;DHT22;11731;48.592;8.858;2024-03-08T08:23:36;7.00;99.90
23124;DHT22;11731;48.592;8.858;2024-03-08T08:26:10;7.20;99.90
23124;DHT22;11731;48.592;8.858;2024-03-08T08:28:37;7.40;99.90
23124;DHT22;11731;48.592;8.858;2024-03-08T08:31:06;7.10;99.90
23124;DHT22;11731;48.592;8.858;2024-03-08T08:33:33;6.40;99.90
23124;DHT22;11731;48.592;8.858;2024-03-08T08:36:02;6.40;99.90
23124;DHT22;11731;48.592;8.858;2024-03-08T08:38:30;6.40;99.90
23124;DHT22;11731;48.592;8.858;2024-03-08T08:40:57;6.50;99.90
23124;DHT22;11731;48.592;8.858;2024-03-08T08:44:51;6.50;99.90
23124;DHT22;11731;48.592;8.858;2024-03-08T08:50:22;7.00;99.90
23124;DHT22;11731;48.592;8.858;2024-03-08T08:52:49;6.60;99.90
23124;DHT22;11731;48.592;8.858;2024-03-08T08:55:18;6.70;99.90
23124;DHT22;11731;48.592;8.858;2024-03-08T08:57:46;6.80;99.90
23124;DHT22;11731;48.592;8.858;2024-03-08T09:00:14;6.70;99.90
23124;DHT22;11731;48.592;8.858;2024-03-08T09:02:41;7.30;99.90
23124;DHT22;11731;48.592;8.858;2024-03-08T09:05:08;7.80;99.90
23124;DHT22;11731;48.592;8.858;2024-03-08T09:07:35;8.20;99.90
23124;DHT22;11731;48.592;8.858;2024-03-08T09:13:26;8.20;99.90
23124;DHT22;11731;48.592;8.858;2024-03-08T09:15:53;7.40;99.90
23124;DHT22;11731;48.592;8.858;2024-03-08T09:19:43;7.20;99.90
23124;DHT22;11731;48.592;8.858;2024-03-08T09:21:32;7.40;99.90
23124;DHT22;11731;48.592;8.858;2024-03-08T09:24:00;7.30;99.90
23124;DHT22;11731;48.592;8.858;2024-03-08T09:26:27;7.50;99.90
23124;DHT22;11731;48.592;8.858;2024-03-08T09:32:08;7.70;99.90
23124;DHT22;11731;48.592;8.858;2024-03-08T09:34:58;7.80;99.90
23124;DHT22;11731;48.592;8.858;2024-03-08T09:37:26;8.10;99.90
23124;DHT22;11731;48.592;8.858;2024-03-08T09:39:53;8.00;99.90
23124;DHT22;11731;48.592;8.858;2024-03-08T09:42:20;7.90;99.90
23124;DHT22;11731;48.592;8.858;2024-03-08T09:44:49;8.00;99.90
23124;DHT22;11731;48.592;8.858;2024-03-08T09:47:24;8.20;99.90
23124;DHT22;11731;48.592;8.858;2024-03-08T09:49:59;8.30;99.90
23124;DHT22;11731;48.592;8.858;2024-03-08T09:52:26;8.60;99.90
23124;DHT22;11731;48.592;8.858;2024-03-08T09:54:56;8.70;99.90
23124;DHT22;11731;48.592;8.858;2024-03-08T09:57:23;8.40;99.90
23124;DHT22;11731;48.592;8.858;2024-03-08T09:59:51;8.10;99.90
23124;DHT22;11731;48.592;8.858;2024-03-08T10:02:22;8.00;99.90
23124;DHT22;11731;48.592;8.858;2024-03-08T10:04:49;8.00;99.90
23124;DHT22;11731;48.592;8.858;2024-03-08T10:07:39;8.40;99.90
23124;DHT22;11731;48.592;8.858;2024-03-08T10:10:07;8.70;99.90
23124;DHT22;11731;48.592;8.858;2024-03-08T10:12:37;8.90;99.90
23124;DHT22;11731;48.592;8.858;2024-03-08T10:15:13;8.70;99.90
23124;DHT22;11731;48.592;8.858;2024-03-08T10:17:44;8.20;99.90
23124;DHT22;11731;48.592;8.858;2024-03-08T10:20:14;7.90;99.90
23124;DHT22;11731;48.592;8.858;2024-03-08T10:22:41;8.00;99.90
23124;DHT22;11731;48.592;8.858;2024-03-08T10:28:09;8.80;99.90
23124;DHT22;11731;48.592;8.858;2024-03-08T10:30:36;9.30;99.90
23124;DHT22;11731;48.592;8.858;2024-03-08T10:33:05;9.50;99.90
23124;DHT22;11731;48.592;8.858;2024-03-08T10:35:32;9.50;99.90
23124;DHT22;11731;48.592;8.858;2024-03-08T10:38:00;9.80;99.90
23124;DHT22;11731;48.592;8.858;2024-03-08T10:43:33;9.10;99.90
23124;DHT22;11731;48.592;8.858;2024-03-08T10:46:11;8.60;99.90
23124;DHT22;11731;48.592;8.858;2024-03-08T10:48:50;8.80;99.90
23124;DHT22;11731;48.592;8.858;2024-03-08T10:51:19;9.20;99.90
23124;DHT22;11731;48.592;8.858;2024-03-08T10:53:56;9.00;99.90
23124;DHT22;11731;48.592;8.858;2024-03-08T10:58:38;9.30;99.90
23124;DHT22;11731;48.592;8.858;2024-03-08T11:03:05;8.90;99.90
23124;DHT22;11731;48.592;8.858;2024-03-08T11:05:37;8.90;99.90
23124;DHT22;11731;48.592;8.858;2024-03-08T11:10:46;8.90;99.90
23124;DHT22;11731;48.592;8.858;2024-03-08T11:13:34;9.10;99.90
23124;DHT22;11731;48.592;8.858;2024-03-08T11:19:51;9.90;99.90
23124;DHT22;11731;48.592;8.858;2024-03-08T11:22:26;10.40;99.90
23124;DHT22;11731;48.592;8.858;2024-03-08T11:25:34;10.40;99.90
23124;DHT22;11731;48.592;8.858;2024-03-08T11:31:21;10.80;99.90
23124;DHT22;11731;48.592;8.858;2024-03-08T11:33:53;10.00;99.90
23124;DHT22;11731;48.592;8.858;2024-03-08T11:36:21;9.70;99.90
23124;DHT22;11731;48.592;8.858;2024-03-08T11:38:50;10.00;99.90
23124;DHT22;11731;48.592;8.858;2024-03-08T11:41:19;10.50;99.90
23124;DHT22;11731;48.592;8.858;2024-03-08T11:43:47;10.10;99.90
23124;DHT22;11731;48.592;8.858;2024-03-08T11:46:15;10.30;99.90
23124;DHT22;11731;48.592;8.858;2024-03-08T11:48:43;10.70;99.90
23124;DHT22;11731;48.592;8.858;2024-03-08T11:51:11;10.20;99.90
23124;DHT22;11731;48.592;8.858;2024-03-08T11:53:39;9.50;99.90
23124;DHT22;11731;48.592;8.858;2024-03-08T11:56:37;9.70;99.90
23124;DHT22;11731;48.592;8.858;2024-03-08T11:59:04;10.10;99.90
23124;DHT22;11731;48.592;8.858;2024-03-08T12:01:31;9.20;99.90
23124;DHT22;11731;48.592;8.858;2024-03-08T12:04:15;9.30;99.90
23124;DHT22;11731;48.592;8.858;2024-03-08T12:06:44;10.00;99.90
23124;DHT22;11731;48.592;8.858;2024-03-08T12:09:34;10.20;99.90
23124;DHT22;11731;48.592;8.858;2024-03-08T12:12:03;9.60;99.90
23124;DHT22;11731;48.592;8.858;2024-03-08T12:14:31;9.40;99.90
23124;DHT22;11731;48.592;8.858;2024-03-08T12:16:58;9.30;99.90
23124;DHT22;11731;48.592;8.858;2024-03-08T12:19:26;8.80;99.90
23124;DHT22;11731;48.592;8.858;2024-03-08T12:21:54;8.60;99.90
23124;DHT22;11731;48.592;8.858;2024-03-08T12:24:21;9.10;99.90
23124;DHT22;11731;48.592;8.858;2024-03-08T12:26:49;9.30;99.90
23124;DHT22;11731;48.592;8.858;2024-03-08T12:29:23;9.40;99.90
23124;DHT22;11731;48.592;8.858;2024-03-08T12:32:11;9.30;99.90
23124;DHT22;11731;48.592;8.858;2024-03-08T12:34:39;9.40;99.90
23124;DHT22;11731;48.592;8.858;2024-03-08T12:37:06;9.80;99.90
23124;DHT22;11731;48.592;8.858;2024-03-08T12:39:35;9.90;99.90
23124;DHT22;11731;48.592;8.858;2024-03-08T12:42:22;9.80;99.90
23124;DHT22;11731;48.592;8.858;2024-03-08T12:44:50;9.90;99.90
23124;DHT22;11731;48.592;8.858;2024-03-08T12:47:17;9.80;99.90
23124;DHT22;11731;48.592;8.858;2024-03-08T12:49:44;10.10;99.90
23124;DHT22;11731;48.592;8.858;2024-03-08T12:52:11;10.10;99.90
23124;DHT22;11731;48.592;8.858;2024-03-08T12:54:38;10.20;99.90
23124;DHT22;11731;48.592;8.858;2024-03-08T12:57:07;10.00;99.90
23124;DHT22;11731;48.592;8.858;2024-03-08T13:02:07;9.70;99.90
23124;DHT22;11731;48.592;8.858;2024-03-08T13:04:36;10.00;99.90
23124;DHT22;11731;48.592;8.858;2024-03-08T13:09:55;10.10;99.90
23124;DHT22;11731;48.592;8.858;2024-03-08T13:12:22;9.60;99.90
23124;DHT22;11731;48.592;8.858;2024-03-08T13:14:49;9.90;99.90
23124;DHT22;11731;48.592;8.858;2024-03-08T13:17:17;10.60;99.90
23124;DHT22;11731;48.592;8.858;2024-03-08T13:19:58;11.10;99.90
23124;DHT22;11731;48.592;8.858;2024-03-08T13:23:03;10.90;99.90
23124;DHT22;11731;48.592;8.858;2024-03-08T13:25:46;10.60;99.90
23124;DHT22;11731;48.592;8.858;2024-03-08T13:30:51;10.90;99.90
23124;DHT22;11731;48.592;8.858;2024-03-08T13:33:19;10.70;99.90
23124;DHT22;11731;48.592;8.858;2024-03-08T13:35:51;10.40;99.90
23124;DHT22;11731;48.592;8.858;2024-03-08T13:38:22;10.70;99.90
23124;DHT22;11731;48.592;8.858;2024-03-08T13:40:49;10.60;99.90
23124;DHT22;11731;48.592;8.858;2024-03-08T13:43:17;10.80;99.90
23124;DHT22;11731;48.592;8.858;2024-03-08T13:45:44;11.10;99.90
23124;DHT22;11731;48.592;8.858;2024-03-08T13:48:12;11.10;99.90
23124;DHT22;11731;48.592;8.858;2024-03-08T13:50:41;11.30;99.90
23124;DHT22;11731;48.592;8.858;2024-03-08T13:53:08;11.20;99.90
23124;DHT22;11731;48.592;8.858;2024-03-08T13:55:37;11.00;99.90
23124;DHT22;11731;48.592;8.858;2024-03-08T13:58:15;11.50;99.90
23124;DHT22;11731;48.592;8.858;2024-03-08T14:00:41;11.30;99.90
23124;DHT22;11731;48.592;8.858;2024-03-08T14:03:09;11.60;99.90
23124;DHT22;11731;48.592;8.858;2024-03-08T14:05:41;11.70;99.90
23124;DHT22;11731;48.592;8.858;2024-03-08T14:08:24;11.50;99.90
23124;DHT22;11731;48.592;8.858;2024-03-08T14:10:52;11.60;99.90
23124;DHT22;11731;48.592;8.858;2024-03-08T14:17:25;12.00;99.90
23124;DHT22;11731;48.592;8.858;2024-03-08T14:20:12;12.20;99.90
23124;DHT22;11731;48.592;8.858;2024-03-08T14:22:41;12.10;99.90
23124;DHT22;11731;48.592;8.858;2024-03-08T14:25:08;12.20;99.90
23124;DHT22;11731;48.592;8.858;2024-03-08T14:27:42;12.40;99.90
23124;DHT22;11731;48.592;8.858;2024-03-08T14:30:10;12.40;99.90
23124;DHT22;11731;48.592;8.858;2024-03-08T14:32:37;12.50;99.90
23124;DHT22;11731;48.592;8.858;2024-03-08T14:35:05;12.60;99.90
23124;DHT22;11731;48.592;8.858;2024-03-08T14:37:32;12.80;99.90
23124;DHT22;11731;48.592;8.858;2024-03-08T14:40:00;12.70;99.90
23124;DHT22;11731;48.592;8.858;2024-03-08T14:42:30;12.60;99.90
23124;DHT22;11731;48.592;8.858;2024-03-08T14:45:05;12.60;99.90
23124;DHT22;11731;48.592;8.858;2024-03-08T14:47:32;12.60;99.90
23124;DHT22;11731;48.592;8.858;2024-03-08T14:50:29;12.30;99.90
23124;DHT22;11731;48.592;8.858;2024-03-08T14:52:57;12.30;99.90
23124;DHT22;11731;48.592;8.858;2024-03-08T14:55:51;12.30;99.90
23124;DHT22;11731;48.592;8.858;2024-03-08T14:59:15;12.50;99.90
23124;DHT22;11731;48.592;8.858;2024-03-08T15:01:49;12.50;99.90
23124;DHT22;11731;48.592;8.858;2024-03-08T15:04:16;12.20;99.90
23124;DHT22;11731;48.592;8.858;2024-03-08T15:06:58;12.00;99.90
23124;DHT22;11731;48.592;8.858;2024-03-08T15:09:27;12.30;99.90
23124;DHT22;11731;48.592;8.858;2024-03-08T15:12:06;12.50;99.90
23124;DHT22;11731;48.592;8.858;2024-03-08T15:14:33;12.60;99.90
23124;DHT22;11731;48.592;8.858;2024-03-08T15:17:00;12.50;99.90
23124;DHT22;11731;48.592;8.858;2024-03-08T15:19:32;11.60;99.90
23124;DHT22;11731;48.592;8.858;2024-03-08T15:21:59;11.20;99.90
23124;DHT22;11731;48.592;8.858;2024-03-08T15:24:26;11.40;99.90
23124;DHT22;11731;48.592;8.858;2024-03-08T15:27:23;11.50;99.90
23124;DHT22;11731;48.592;8.858;2024-03-08T15:32:59;11.30;99.90
23124;DHT22;11731;48.592;8.858;2024-03-08T15:35:28;11.10;99.90
23124;DHT22;11731;48.592;8.858;2024-03-08T15:37:57;11.20;99.90
23124;DHT22;11731;48.592;8.858;2024-03-08T15:40:27;11.30;99.90
23124;DHT22;11731;48.592;8.858;2024-03-08T15:46:03;11.40;99.90
23124;DHT22;11731;48.592;8.858;2024-03-08T15:48:31;11.20;99.90
23124;DHT22;11731;48.592;8.858;2024-03-08T15:51:01;11.10;99.90
23124;DHT22;11731;48.592;8.858;2024-03-08T15:56:38;10.40;99.90
23124;DHT22;11731;48.592;8.858;2024-03-08T15:59:05;10.40;99.90
23124;DHT22;11731;48.592;8.858;2024-03-08T16:01:34;10.70;99.90
23124;DHT22;11731;48.592;8.858;2024-03-08T16:04:01;10.90;99.90
23124;DHT22;11731;48.592;8.858;2024-03-08T16:06:29;10.70;99.90
23124;DHT22;11731;48.592;8.858;2024-03-08T16:08:56;10.70;99.90
23124;DHT22;11731;48.592;8.858;2024-03-08T16:11:24;10.70;99.90
23124;DHT22;11731;48.592;8.858;2024-03-08T16:13:52;10.70;99.90
23124;DHT22;11731;48.592;8.858;2024-03-08T16:16:19;10.90;99.90
23124;DHT22;11731;48.592;8.858;2024-03-08T16:21:27;10.40;99.90
23124;DHT22;11731;48.592;8.858;2024-03-08T16:23:54;10.60;99.90
23124;DHT22;11731;48.592;8.858;2024-03-08T16:26:20;10.80;99.90
23124;DHT22;11731;48.592;8.858;2024-03-08T16:28:53;10.80;99.90
23124;DHT22;11731;48.592;8.858;2024-03-08T16:31:34;10.50;99.90
23124;DHT22;11731;48.592;8.858;2024-03-08T16:34:09;10.20;99.90
23124;DHT22;11731;48.592;8.858;2024-03-08T16:36:37;10.30;99.90
23124;DHT22;11731;48.592;8.858;2024-03-08T16:39:05;10.40;99.90
23124;DHT22;11731;48.592;8.858;2024-03-08T16:41:35;10.40;99.90
23124;DHT22;11731;48.592;8.858;2024-03-08T16:44:04;10.30;99.90
23124;DHT22;11731;48.592;8.858;2024-03-08T16:46:44;10.40;99.90
23124;DHT22;11731;48.592;8.858;2024-03-08T16:49:11;10.40;99.90
23124;DHT22;11731;48.592;8.858;2024-03-08T16:51:39;10.20;99.90
23124;DHT22;11731;48.592;8.858;2024-03-08T16:54:06;10.30;99.90
23124;DHT22;11731;48.592;8.858;2024-03-08T16:56:33;10.60;99.90
23124;DHT22;11731;48.592;8.858;2024-03-08T16:59:03;10.60;99.90
23124;DHT22;11731;48.592;8.858;2024-03-08T17:01:44;10.60;99.90
23124;DHT22;11731;48.592;8.858;2024-03-08T17:07:15;10.40;99.90
23124;DHT22;11731;48.592;8.858;2024-03-08T17:09:45;10.30;99.90
23124;DHT22;11731;48.592;8.858;2024-03-08T17:13:01;10.00;99.90
23124;DHT22;11731;48.592;8.858;2024-03-08T17:15:31;9.80;99.90
23124;DHT22;11731;48.592;8.858;2024-03-08T17:18:00;9.40;99.90
23124;DHT22;11731;48.592;8.858;2024-03-08T17:20:31;9.40;99.90
23124;DHT22;11731;48.592;8.858;2024-03-08T17:23:07;9.20;99.90
23124;DHT22;11731;48.592;8.858;2024-03-08T17:25:35;9.00;99.90
23124;DHT22;11731;48.592;8.858;2024-03-08T17:28:06;9.10;99.90
23124;DHT22;11731;48.592;8.858;2024-03-08T17:30:34;8.90;99.90
23124;DHT22;11731;48.592;8.858;2024-03-08T17:33:11;9.00;99.90
23124;DHT22;11731;48.592;8.858;2024-03-08T17:35:40;8.90;99.90
23124;DHT22;11731;48.592;8.858;2024-03-08T17:40:49;9.00;99.90
23124;DHT22;11731;48.592;8.858;2024-03-08T17:43:20;9.00;99.90